createdAt,value
2023-03-26T00:01:28.344Z,30
2023-03-26T00:04:28.385Z,22
2023-03-26T00:06:28.403Z,33
2023-03-26T00:09:28.361Z,54
2023-03-26T00:11:28.404Z,64
2023-03-26T00:13:28.454Z,43
2023-03-26T00:16:28.385Z,43
2023-03-26T00:18:28.372Z,57
2023-03-26T00:21:28.504Z,17
2023-03-26T00:23:28.378Z,21
2023-03-26T00:26:28.398Z,12
2023-03-26T00:29:28.363Z,13
2023-03-26T00:32:28.375Z,13
2023-03-26T00:34:28.447Z,17
2023-03-26T00:36:28.428Z,45
2023-03-26T00:38:28.434Z,19
2023-03-26T00:41:29.613Z,14
2023-03-26T00:43:28.348Z,20
2023-03-26T00:46:28.410Z,58
2023-03-26T00:48:38.190Z,21
2023-03-26T00:51:28.536Z,35
2023-03-26T00:54:28.432Z,19
2023-03-26T00:57:35.372Z,46
2023-03-26T00:59:28.420Z,26
2023-03-26T01:02:28.471Z,19
2023-03-26T01:05:28.357Z,25
2023-03-26T01:07:28.369Z,19
2023-03-26T01:10:28.429Z,15
2023-03-26T01:12:31.331Z,26
2023-03-26T01:15:28.564Z,18
2023-03-26T01:18:28.394Z,38
2023-03-26T01:21:28.366Z,68
2023-03-26T01:23:28.415Z,36
2023-03-26T01:26:28.364Z,24
2023-03-26T01:29:28.440Z,34
2023-03-26T01:32:29.518Z,36
2023-03-26T01:34:28.399Z,14
2023-03-26T01:39:28.420Z,15
2023-03-26T01:42:28.432Z,17
2023-03-26T01:45:28.388Z,16
2023-03-26T01:48:28.358Z,32
2023-03-26T01:50:28.508Z,26
2023-03-26T01:53:29.772Z,15
2023-03-26T01:56:28.491Z,30
2023-03-26T01:58:28.368Z,27
2023-03-26T02:00:28.527Z,13
2023-03-26T02:03:28.504Z,12
2023-03-26T02:05:28.403Z,26
2023-03-26T02:08:28.392Z,21
2023-03-26T02:11:35.284Z,47
2023-03-26T02:13:28.377Z,18
2023-03-26T02:15:28.363Z,57
2023-03-26T02:17:28.396Z,61
2023-03-26T02:20:28.389Z,15
2023-03-26T02:23:28.511Z,35
2023-03-26T02:25:28.529Z,19
2023-03-26T02:28:28.387Z,20
2023-03-26T02:31:28.437Z,14
2023-03-26T02:33:28.440Z,22
2023-03-26T02:36:28.612Z,19
2023-03-26T02:39:28.328Z,17
2023-03-26T02:41:28.394Z,15
2023-03-26T02:44:28.430Z,13
2023-03-26T02:46:28.420Z,19
2023-03-26T02:49:28.440Z,18
2023-03-26T02:52:28.382Z,19
2023-03-26T02:54:28.372Z,15
2023-03-26T02:57:28.380Z,19
2023-03-26T03:00:28.348Z,34
2023-03-26T03:02:28.380Z,27
2023-03-26T03:05:28.411Z,37
2023-03-26T03:08:28.549Z,69
2023-03-26T03:11:28.392Z,44
2023-03-26T03:13:28.435Z,28
2023-03-26T03:16:28.485Z,50
2023-03-26T03:19:28.425Z,27
2023-03-26T03:22:28.389Z,24
2023-03-26T03:24:28.441Z,32
2023-03-26T03:27:28.493Z,22
2023-03-26T03:30:28.493Z,24
2023-03-26T03:33:28.356Z,23
2023-03-26T03:35:30.197Z,14
2023-03-26T03:38:28.359Z,18
2023-03-26T03:41:28.431Z,17
2023-03-26T03:43:28.400Z,21
2023-03-26T03:46:28.459Z,16
2023-03-26T03:48:28.369Z,19
2023-03-26T03:50:28.386Z,16
2023-03-26T03:52:28.420Z,15
2023-03-26T03:55:28.362Z,17
2023-03-26T03:57:28.386Z,13
2023-03-26T03:59:28.952Z,15
2023-03-26T04:02:28.428Z,15
2023-03-26T04:04:28.467Z,18
2023-03-26T04:06:28.393Z,20
2023-03-26T04:09:28.376Z,18
2023-03-26T04:11:28.387Z,17
2023-03-26T04:14:28.408Z,21
2023-03-26T04:17:28.369Z,19
2023-03-26T04:19:28.506Z,21
2023-03-26T04:22:28.373Z,22
2023-03-26T04:24:28.537Z,17
2023-03-26T04:27:28.428Z,19
2023-03-26T04:30:28.410Z,23
2023-03-26T04:33:28.354Z,19
2023-03-26T04:36:28.380Z,17
2023-03-26T04:38:28.380Z,18
2023-03-26T04:41:28.451Z,15
2023-03-26T04:43:28.388Z,18
2023-03-26T04:46:28.550Z,16
2023-03-26T04:49:28.542Z,18
2023-03-26T04:51:28.396Z,17
2023-03-26T04:53:28.405Z,20
2023-03-26T04:55:28.402Z,15
2023-03-26T04:58:28.410Z,22
2023-03-26T05:01:28.435Z,17
2023-03-26T05:04:28.422Z,17
2023-03-26T05:06:28.411Z,15
2023-03-26T05:09:28.426Z,15
2023-03-26T05:11:28.414Z,16
2023-03-26T05:14:28.754Z,19
2023-03-26T05:17:28.418Z,16
2023-03-26T05:19:30.034Z,18
2023-03-26T05:22:28.411Z,13
2023-03-26T05:25:29.294Z,21
2023-03-26T05:28:28.381Z,18
2023-03-26T05:30:28.471Z,16
2023-03-26T05:33:28.477Z,18
2023-03-26T05:36:28.460Z,18
2023-03-26T05:38:28.401Z,16
2023-03-26T05:41:28.449Z,18
2023-03-26T05:44:28.429Z,15
2023-03-26T05:47:28.440Z,42
2023-03-26T05:49:28.616Z,27
2023-03-26T05:52:28.392Z,17
2023-03-26T05:55:28.379Z,17
2023-03-26T05:57:28.404Z,20
2023-03-26T06:00:28.811Z,19
2023-03-26T06:03:28.524Z,20
2023-03-26T06:05:28.404Z,17
2023-03-26T06:08:28.403Z,28
2023-03-26T06:13:28.421Z,16
2023-03-26T06:16:30.492Z,16
2023-03-26T06:18:28.462Z,14
2023-03-26T06:20:28.493Z,17
2023-03-26T06:23:28.406Z,20
2023-03-26T06:26:28.395Z,19
2023-03-26T06:29:28.723Z,19
2023-03-26T06:31:28.468Z,17
2023-03-26T06:34:28.540Z,18
2023-03-26T06:37:28.613Z,18
2023-03-26T06:39:30.182Z,18
2023-03-26T06:42:32.113Z,16
2023-03-26T06:45:28.542Z,18
2023-03-26T06:48:28.417Z,19
2023-03-26T06:50:28.415Z,19
2023-03-26T06:53:28.355Z,17
2023-03-26T06:55:29.238Z,24
2023-03-26T06:58:28.462Z,20
2023-03-26T07:01:28.424Z,18
2023-03-26T07:04:28.586Z,19
2023-03-26T07:06:28.408Z,21
2023-03-26T07:09:28.441Z,19
2023-03-26T07:12:28.395Z,23
2023-03-26T07:14:29.261Z,21
2023-03-26T07:16:28.581Z,21
2023-03-26T07:18:30.196Z,21
2023-03-26T07:21:28.395Z,20
2023-03-26T07:27:29.840Z,30
2023-03-26T07:32:28.401Z,18
2023-03-26T07:34:40.276Z,19
2023-03-26T07:36:38.677Z,20
2023-03-26T07:40:28.534Z,20
2023-03-26T07:42:28.383Z,17
2023-03-26T07:45:30.062Z,16
2023-03-26T07:47:54.138Z,18
2023-03-26T07:50:48.860Z,24
2023-03-26T07:53:34.379Z,17
2023-03-26T07:56:38.815Z,24
2023-03-26T08:00:28.535Z,20
2023-03-26T08:03:28.464Z,16
2023-03-26T08:05:28.469Z,22
2023-03-26T08:08:28.409Z,19
2023-03-26T08:12:28.361Z,22
2023-03-26T08:14:28.366Z,22
2023-03-26T08:16:28.413Z,16
2023-03-26T08:20:28.413Z,19
2023-03-26T08:22:28.364Z,17
2023-03-26T08:25:28.415Z,16
2023-03-26T08:27:31.776Z,17
2023-03-26T08:30:28.363Z,20
2023-03-26T08:33:28.502Z,18
2023-03-26T08:35:28.423Z,16
2023-03-26T08:38:28.569Z,23
2023-03-26T08:41:28.493Z,15
2023-03-26T08:43:28.427Z,15
2023-03-26T08:46:28.486Z,17
2023-03-26T08:49:29.726Z,17
2023-03-26T08:53:28.364Z,21
2023-03-26T08:55:28.403Z,16
2023-03-26T08:58:28.384Z,14
2023-03-26T09:00:28.409Z,16
2023-03-26T09:03:28.415Z,14
2023-03-26T09:05:28.396Z,15
2023-03-26T09:08:38.680Z,16
2023-03-26T09:11:28.385Z,15
2023-03-26T09:13:31.773Z,26
2023-03-26T09:16:28.431Z,15
2023-03-26T09:18:28.416Z,16
2023-03-26T09:21:28.410Z,20
2023-03-26T09:23:28.677Z,16
2023-03-26T09:26:28.387Z,18
2023-03-26T09:29:28.869Z,14
2023-03-26T09:32:28.595Z,18
2023-03-26T09:35:28.420Z,18
2023-03-26T09:37:28.507Z,16
2023-03-26T09:40:28.401Z,18
2023-03-26T09:42:28.398Z,17
2023-03-26T09:45:28.397Z,18
2023-03-26T09:49:28.386Z,17
2023-03-26T09:52:28.501Z,22
2023-03-26T09:55:28.783Z,22
2023-03-26T09:58:28.404Z,16
2023-03-26T10:03:28.780Z,18
2023-03-26T10:06:28.703Z,21
2023-03-26T10:09:28.396Z,18
2023-03-26T10:11:29.397Z,18
2023-03-26T10:13:28.394Z,20
2023-03-26T10:16:28.448Z,19
2023-03-26T10:20:37.970Z,24
2023-03-26T10:23:28.417Z,22
2023-03-26T10:25:28.580Z,17
2023-03-26T10:29:28.691Z,19
2023-03-26T10:32:30.107Z,18
2023-03-26T10:34:38.758Z,20
2023-03-26T10:37:28.395Z,17
2023-03-26T10:40:28.461Z,16
2023-03-26T10:42:28.412Z,15
2023-03-26T10:45:28.381Z,12
2023-03-26T10:47:28.409Z,12
2023-03-26T10:49:28.404Z,9
2023-03-26T10:52:28.406Z,9
2023-03-26T10:55:28.521Z,8
2023-03-26T10:57:28.443Z,11
2023-03-26T10:59:28.392Z,9
2023-03-26T11:02:29.213Z,8
2023-03-26T11:04:30.077Z,10
2023-03-26T11:07:28.409Z,7
2023-03-26T11:10:28.513Z,8
2023-03-26T11:12:28.502Z,13
2023-03-26T11:15:28.520Z,9
2023-03-26T11:17:39.917Z,9
2023-03-26T11:21:28.596Z,11
2023-03-26T11:24:28.394Z,6
2023-03-26T11:27:29.862Z,7
2023-03-26T11:30:28.407Z,7
2023-03-26T11:33:32.677Z,8
2023-03-26T11:35:39.227Z,8
2023-03-26T11:37:28.425Z,6
2023-03-26T11:40:28.393Z,7
2023-03-26T11:42:28.403Z,7
2023-03-26T11:44:28.481Z,7
2023-03-26T11:47:28.432Z,6
2023-03-26T11:50:28.546Z,7
2023-03-26T11:53:28.392Z,7
2023-03-26T11:56:28.623Z,8
2023-03-26T11:59:28.570Z,7
2023-03-26T12:01:28.522Z,8
2023-03-26T12:04:30.676Z,5
2023-03-26T12:07:28.382Z,6
2023-03-26T12:10:28.392Z,7
2023-03-26T12:12:28.382Z,10
2023-03-26T12:15:28.734Z,7
2023-03-26T12:18:28.400Z,5
2023-03-26T12:20:28.480Z,6
2023-03-26T12:22:28.368Z,6
2023-03-26T12:25:28.513Z,7
2023-03-26T12:27:28.436Z,6
2023-03-26T12:29:28.393Z,6
2023-03-26T12:32:39.365Z,7
2023-03-26T12:34:38.666Z,9
2023-03-26T12:37:28.398Z,6
2023-03-26T12:40:28.380Z,6
2023-03-26T12:44:51.777Z,11
2023-03-26T12:47:54.075Z,8
2023-03-26T12:48:38.720Z,5
2023-03-26T12:51:28.394Z,6
2023-03-26T12:53:28.431Z,7
2023-03-26T12:55:28.422Z,9
2023-03-26T12:57:28.469Z,7
2023-03-26T13:00:28.465Z,7
2023-03-26T13:02:28.590Z,6
2023-03-26T13:05:28.549Z,6
2023-03-26T13:07:28.428Z,10
2023-03-26T13:10:28.501Z,7
2023-03-26T13:12:28.436Z,8
2023-03-26T13:15:28.553Z,6
2023-03-26T13:18:28.438Z,7
2023-03-26T13:21:28.440Z,6
2023-03-26T13:24:28.431Z,9
2023-03-26T13:26:28.430Z,9
2023-03-26T13:28:28.438Z,7
2023-03-26T13:31:28.537Z,7
2023-03-26T13:34:28.414Z,10
2023-03-26T13:37:28.610Z,6
2023-03-26T13:39:28.422Z,8
2023-03-26T13:42:28.409Z,6
2023-03-26T13:44:30.110Z,7
2023-03-26T13:46:38.725Z,7
2023-03-26T13:49:28.436Z,6
2023-03-26T13:51:30.136Z,9
2023-03-26T13:54:28.416Z,7
2023-03-26T13:57:28.416Z,6
2023-03-26T13:59:30.148Z,7
2023-03-26T14:02:28.554Z,4
2023-03-26T14:05:28.450Z,4
2023-03-26T14:08:28.444Z,6
2023-03-26T14:10:28.631Z,6
2023-03-26T14:13:28.439Z,7
2023-03-26T14:15:51.080Z,5
2023-03-26T14:18:28.422Z,5
2023-03-26T14:20:29.564Z,5
2023-03-26T14:22:28.416Z,5
2023-03-26T14:24:29.755Z,5
2023-03-26T14:27:28.407Z,6
2023-03-26T14:29:30.094Z,7
2023-03-26T14:31:33.661Z,6
2023-03-26T14:33:38.708Z,10
2023-03-26T14:35:38.822Z,5
2023-03-26T14:38:28.485Z,4
2023-03-26T14:41:28.422Z,5
2023-03-26T14:43:38.715Z,5
2023-03-26T14:45:38.944Z,5
2023-03-26T14:48:28.461Z,4
2023-03-26T14:50:30.030Z,4
2023-03-26T14:53:28.411Z,4
2023-03-26T14:55:28.450Z,4
2023-03-26T14:58:30.025Z,5
2023-03-26T15:00:28.601Z,3
2023-03-26T15:02:38.882Z,3
2023-03-26T15:05:28.529Z,4
2023-03-26T15:07:30.124Z,5
2023-03-26T15:10:28.615Z,3
2023-03-26T15:13:28.447Z,4
2023-03-26T15:15:31.908Z,3
2023-03-26T15:17:38.733Z,5
2023-03-26T15:19:38.896Z,5
2023-03-26T15:22:28.581Z,4
2023-03-26T15:25:28.742Z,4
2023-03-26T15:27:28.492Z,4
2023-03-26T15:29:30.300Z,4
2023-03-26T15:32:28.553Z,5
2023-03-26T15:34:38.695Z,4
2023-03-26T15:37:28.496Z,4
2023-03-26T15:40:28.830Z,5
2023-03-26T15:43:28.445Z,4
2023-03-26T15:45:28.712Z,6
2023-03-26T15:48:28.523Z,5
2023-03-26T15:51:28.784Z,4
2023-03-26T15:55:28.571Z,5
2023-03-26T15:58:30.145Z,4
2023-03-26T16:01:28.966Z,5
2023-03-26T16:03:28.445Z,4
2023-03-26T16:05:51.583Z,4
2023-03-26T16:08:28.465Z,5
2023-03-26T16:11:29.813Z,8
2023-03-26T16:13:31.051Z,5
2023-03-26T16:16:28.525Z,5
2023-03-26T16:18:28.469Z,5
2023-03-26T16:22:29.285Z,4
2023-03-26T16:25:29.161Z,7
2023-03-26T16:27:28.442Z,5
2023-03-26T16:30:41.525Z,6
2023-03-26T16:33:28.450Z,4
2023-03-26T16:35:28.667Z,5
2023-03-26T16:38:28.452Z,6
2023-03-26T16:41:28.516Z,5
2023-03-26T16:43:28.457Z,7
2023-03-26T16:46:29.134Z,6
2023-03-26T16:48:28.459Z,5
2023-03-26T16:51:28.735Z,5
2023-03-26T16:53:28.456Z,6
2023-03-26T16:56:28.584Z,4
2023-03-26T16:58:28.463Z,5
2023-03-26T17:01:31.575Z,4
2023-03-26T17:04:28.447Z,4
2023-03-26T17:06:28.442Z,7
2023-03-26T17:09:28.454Z,4
2023-03-26T17:12:28.423Z,5
2023-03-26T17:14:28.461Z,4
2023-03-26T17:17:28.864Z,5
2023-03-26T17:20:28.644Z,5
2023-03-26T17:22:28.466Z,4
2023-03-26T17:24:28.677Z,5
2023-03-26T17:27:28.460Z,3
2023-03-26T17:30:28.635Z,5
2023-03-26T17:33:28.466Z,5
2023-03-26T17:36:28.543Z,7
2023-03-26T17:38:28.492Z,7
2023-03-26T17:40:28.556Z,6
2023-03-26T17:42:28.503Z,4
2023-03-26T17:45:28.504Z,6
2023-03-26T17:48:28.525Z,8
2023-03-26T17:51:28.458Z,5
2023-03-26T17:53:28.449Z,5
2023-03-26T17:55:28.454Z,6
2023-03-26T17:57:28.487Z,8
2023-03-26T18:03:30.813Z,5
2023-03-26T18:06:28.491Z,6
2023-03-26T18:08:28.502Z,7
2023-03-26T18:11:28.459Z,6
2023-03-26T18:14:28.455Z,9
2023-03-26T18:16:28.500Z,6
2023-03-26T18:19:28.594Z,6
2023-03-26T18:21:28.460Z,7
2023-03-26T18:24:28.494Z,6
2023-03-26T18:27:28.449Z,9
2023-03-26T18:29:28.608Z,7
2023-03-26T18:33:28.516Z,6
2023-03-26T18:36:28.523Z,7
2023-03-26T18:39:28.483Z,9
2023-03-26T18:41:28.858Z,6
2023-03-26T18:44:28.496Z,7
2023-03-26T18:47:28.725Z,8
2023-03-26T18:49:28.497Z,6
2023-03-26T18:52:33.096Z,8
2023-03-26T18:55:28.516Z,9
2023-03-26T18:58:28.446Z,6
2023-03-26T19:00:28.484Z,10
2023-03-26T19:03:28.648Z,8
2023-03-26T19:06:28.442Z,4
2023-03-26T19:08:28.480Z,7
2023-03-26T19:11:28.493Z,6
2023-03-26T19:14:28.472Z,9
2023-03-26T19:16:28.527Z,6
2023-03-26T19:19:28.466Z,6
2023-03-26T19:21:28.463Z,9
2023-03-26T19:24:28.478Z,7
2023-03-26T19:26:28.548Z,7
2023-03-26T19:29:28.489Z,7
2023-03-26T19:32:28.513Z,8
2023-03-26T19:34:28.482Z,8
2023-03-26T19:37:28.470Z,5
2023-03-26T19:39:37.020Z,8
2023-03-26T19:42:43.539Z,8
2023-03-26T19:44:28.622Z,6
2023-03-26T19:47:35.504Z,10
2023-03-26T19:49:28.642Z,7
2023-03-26T19:52:30.765Z,5
2023-03-26T19:55:28.491Z,7
2023-03-26T19:58:28.481Z,8
2023-03-26T20:00:28.503Z,6
2023-03-26T20:03:28.554Z,7
2023-03-26T20:05:28.527Z,7
2023-03-26T20:07:35.206Z,5
2023-03-26T20:09:28.523Z,6
2023-03-26T20:12:28.528Z,7
2023-03-26T20:15:28.527Z,9
2023-03-26T20:18:28.488Z,7
2023-03-26T20:20:28.518Z,6
2023-03-26T20:23:28.495Z,5
2023-03-26T20:26:28.677Z,6
2023-03-26T20:28:28.710Z,6
2023-03-26T20:31:28.628Z,8
2023-03-26T20:33:28.523Z,9
2023-03-26T20:35:35.711Z,6
2023-03-26T20:38:38.876Z,8
2023-03-26T20:40:28.510Z,7
2023-03-26T20:43:28.499Z,6
2023-03-26T20:45:28.500Z,10
2023-03-26T20:48:28.524Z,7
2023-03-26T20:53:28.504Z,7
2023-03-26T20:56:28.477Z,7
2023-03-26T20:59:28.586Z,8
2023-03-26T21:01:28.544Z,7
2023-03-26T21:03:28.597Z,7
2023-03-26T21:06:28.468Z,7
2023-03-26T21:09:28.554Z,7
2023-03-26T21:12:30.160Z,7
2023-03-26T21:15:28.498Z,6
2023-03-26T21:18:28.480Z,8
2023-03-26T21:20:28.491Z,6
2023-03-26T21:23:28.746Z,6
2023-03-26T21:25:28.506Z,8
2023-03-26T21:27:28.520Z,8
2023-03-26T21:30:28.498Z,7
2023-03-26T21:33:28.676Z,6
2023-03-26T21:36:29.569Z,7
2023-03-26T21:39:28.510Z,5
2023-03-26T21:42:28.468Z,6
2023-03-26T21:45:28.742Z,6
2023-03-26T21:48:28.546Z,5
2023-03-26T21:54:28.495Z,4
2023-03-26T21:56:28.511Z,5
2023-03-26T21:59:28.466Z,6
2023-03-26T22:01:28.487Z,5
2023-03-26T22:03:28.508Z,4
2023-03-26T22:05:28.542Z,5
2023-03-26T22:08:28.533Z,5
2023-03-26T22:11:28.491Z,4
2023-03-26T22:13:28.488Z,5
2023-03-26T22:16:28.537Z,4
2023-03-26T22:19:30.212Z,7
2023-03-26T22:22:28.538Z,6
2023-03-26T22:25:28.529Z,5
2023-03-26T22:28:28.493Z,5
2023-03-26T22:31:28.527Z,5
2023-03-26T22:33:28.498Z,5
2023-03-26T22:35:28.525Z,4
2023-03-26T22:38:28.565Z,5
2023-03-26T22:41:28.527Z,6
2023-03-26T22:44:28.463Z,6
2023-03-26T22:46:28.542Z,5
2023-03-26T22:48:28.500Z,5
2023-03-26T22:51:28.525Z,6
2023-03-26T22:55:29.841Z,4
2023-03-26T22:58:28.555Z,5
2023-03-26T23:01:28.481Z,6
2023-03-26T23:03:34.964Z,7
2023-03-26T23:06:28.552Z,6
2023-03-26T23:09:28.493Z,7
2023-03-26T23:11:28.496Z,9
2023-03-26T23:14:28.484Z,6
2023-03-26T23:16:28.582Z,6
2023-03-26T23:19:28.501Z,8
2023-03-26T23:22:28.512Z,8
2023-03-26T23:24:28.502Z,6
2023-03-26T23:27:28.534Z,7
2023-03-26T23:29:28.485Z,8
2023-03-26T23:31:28.638Z,9
2023-03-26T23:34:28.505Z,11
2023-03-26T23:36:28.521Z,7
2023-03-26T23:38:28.564Z,7
2023-03-26T23:41:28.531Z,9
2023-03-26T23:44:28.488Z,10
2023-03-26T23:46:28.509Z,12
2023-03-26T23:48:28.524Z,13
2023-03-26T23:51:28.514Z,10
2023-03-26T23:53:28.526Z,12
2023-03-26T23:56:28.483Z,13
2023-03-26T23:59:28.529Z,17
